Tim Quigg — WDB6570 — position and weather

sailwx.info

Track history (hours):
 
Tides and Currents Weather Stations Pressure Air Temp Water Temp Dewpoint Dewpoint Depression Visibility Wind Speed Wind Dir Waves Ship Positions

Tim Quigg

Owner: Harley Marine Services, Inc, Seattle, WA. More information available from US FCC via Universal Licensing System and Coast Guard Vessel Documentation Center.

Last reported at 2017-Jun-26 20:30 UTC. Time now 2017-Jun-26 20:50 UTC.
Position N 33°44' W 118°16'.

; draft 4.4 m.

Type: Tug. MMSI: 366926740.

Date/timePositionNaut miles runAvg speedWind from/ knotsBaromVisibWave heightAir tempDewpointWater temp
2017-Jun-26 20:30N 33°44' W 118°16'0 0.0
2017-Jun-26 20:00N 33°44' W 118°16'0 0.0
2017-Jun-26 19:30N 33°44' W 118°16'0 0.0
2017-Jun-26 19:00N 33°44' W 118°16'0 0.0
2017-Jun-26 18:30N 33°44' W 118°16'0 0.0
2017-Jun-26 18:00N 33°44' W 118°16'0 0.0
2017-Jun-26 17:30N 33°44' W 118°16'0 0.0
2017-Jun-26 17:00N 33°44' W 118°16'0 0.0
2017-Jun-26 16:30N 33°44' W 118°16'0 0.0
2017-Jun-26 16:00N 33°44' W 118°16'0 0.0
2017-Jun-26 15:30N 33°44' W 118°16'0 0.0
2017-Jun-26 15:00N 33°44' W 118°16'2 2.1
2017-Jun-26 14:00N 33°46' W 118°15'3 5.7
2017-Jun-26 13:30N 33°43' W 118°16'1 1.3
2017-Jun-26 13:00N 33°44' W 118°16'0 0.0
2017-Jun-26 12:30N 33°44' W 118°16'0 0.0
2017-Jun-26 12:00N 33°44' W 118°16'0 0.0
2017-Jun-26 11:30N 33°44' W 118°16'0 1.0
2017-Jun-26 11:00N 33°44' W 118°16'0 0.0
2017-Jun-26 10:30N 33°44' W 118°16'1 1.4
2017-Jun-26 10:00N 33°43' W 118°16'1 2.7
2017-Jun-26 09:30N 33°43' W 118°15'0 0.7
2017-Jun-26 09:00N 33°43' W 118°15'0 0.1
2017-Jun-26 08:30N 33°43' W 118°15'2 4.3
2017-Jun-26 08:00N 33°45' W 118°13'2 3.1
2017-Jun-26 07:30N 33°46' W 118°13'0 0.3
2017-Jun-26 07:00N 33°46' W 118°13'4 6.8
2017-Jun-26 06:26N 33°43' W 118°15'1 3.1
2017-Jun-26 06:00N 33°44' W 118°16'0 0.0
2017-Jun-26 05:30N 33°44' W 118°16'0 0.0
2017-Jun-26 05:00N 33°44' W 118°16'0 0.0
2017-Jun-26 04:30N 33°44' W 118°16'1 2.3
2017-Jun-26 04:00N 33°45' W 118°16'0 0.8
2017-Jun-26 03:31N 33°45' W 118°16'1 2.9
2017-Jun-26 03:00N 33°44' W 118°16'2 3.3
2017-Jun-26 02:30N 33°43' W 118°14'3 6.5
2017-Jun-26 02:00N 33°46' W 118°13'0 0.1
2017-Jun-26 01:30N 33°46' W 118°13'3 5.0
2017-Jun-26 01:00N 33°45' W 118°16'1 1.2
2017-Jun-26 00:29N 33°46' W 118°15'0 0.1
2017-Jun-26 00:00N 33°46' W 118°15'1 2.6
2017-Jun-25 23:30N 33°45' W 118°16'3 4.9
2017-Jun-25 22:58N 33°43' W 118°14'3 7.3
2017-Jun-25 22:30N 33°44' W 118°10'1 2.8
2017-Jun-25 21:59N 33°44' W 118°09'0 0.7
2017-Jun-25 21:30N 33°44' W 118°09'4 7.0
2017-Jun-25 21:00N 33°45' W 118°13'0 0.0
2017-Jun-25 20:22N 33°45' W 118°13'0 0.0
2017-Jun-25 20:00N 33°45' W 118°13'0 0.7
2017-Jun-25 19:30N 33°45' W 118°13'1 1.4
2017-Jun-25 19:00N 33°46' W 118°13'2 5.0
2017-Jun-25 18:30N 33°44' W 118°14'2 3.6
2017-Jun-25 18:00N 33°44' W 118°16'0 0.2
2017-Jun-25 17:27N 33°44' W 118°16'0 0.0
2017-Jun-25 17:00N 33°44' W 118°16'0 0.0
2017-Jun-25 16:20N 33°44' W 118°16'0 0.0
2017-Jun-25 16:00N 33°44' W 118°16'2 3.3
2017-Jun-25 15:30N 33°45' W 118°16'2 2.8
2017-Jun-25 14:57N 33°44' W 118°17'1 1.5
2017-Jun-25 14:00N 33°44' W 118°15'1 1.5
2017-Jun-25 13:26N 33°44' W 118°16'2 4.0
2017-Jun-25 12:49N 33°44' W 118°13'1 4.5
2017-Jun-25 12:30N 33°45' W 118°14'0 0.4
2017-Jun-25 11:56N 33°45' W 118°14'1 2.2
2017-Jun-25 11:30N 33°45' W 118°13'0 0.0
2017-Jun-25 11:00N 33°45' W 118°13'1 2.7
2017-Jun-25 10:30N 33°44' W 118°13'2 3.6
2017-Jun-25 10:00N 33°43' W 118°15'1 2.0
2017-Jun-25 09:23N 33°44' W 118°16'0 0.2
2017-Jun-25 08:50N 33°44' W 118°16'0 0.0
2017-Jun-25 08:30N 33°44' W 118°16'0 0.0
2017-Jun-25 07:50N 33°44' W 118°16'0 0.0
2017-Jun-25 06:53N 33°44' W 118°16'0 0.0
2017-Jun-25 06:29N 33°44' W 118°16'0 0.0
2017-Jun-25 05:50N 33°44' W 118°16'1 2.4
2017-Jun-25 05:28N 33°43' W 118°16'1 2.2
2017-Jun-25 05:00N 33°44' W 118°15'0 0.5
2017-Jun-25 04:30N 33°44' W 118°16'0 0.0
2017-Jun-25 03:59N 33°44' W 118°16'0 0.0
2017-Jun-25 03:30N 33°44' W 118°16'1 1.2
2017-Jun-25 03:00N 33°44' W 118°16'2 3.8
2017-Jun-25 02:30N 33°46' W 118°16'0 0.3
2017-Jun-25 01:55N 33°46' W 118°15'0 0.2
2017-Jun-25 01:30N 33°46' W 118°16'2 4.1
2017-Jun-25 01:00N 33°44' W 118°16'1 1.2
2017-Jun-25 00:30N 33°43' W 118°16'3 5.0
2017-Jun-25 00:00N 33°46' W 118°15'0 0.5
2017-Jun-24 23:13N 33°46' W 118°16'0 0.9
2017-Jun-24 23:00N 33°46' W 118°15'0 0.6
2017-Jun-24 22:30N 33°45' W 118°16'1 2.8
2017-Jun-24 22:00N 33°44' W 118°17'2 4.1
2017-Jun-24 21:29N 33°43' W 118°15'2 4.5
2017-Jun-24 20:59N 33°44' W 118°17'1 2.3
2017-Jun-24 20:22N 33°45' W 118°16'2 4.4
2017-Jun-24 20:00N 33°44' W 118°16'1 2.1
2017-Jun-24 19:30N 33°44' W 118°15'0 0.2
2017-Jun-24 19:00N 33°44' W 118°15'1 2.4
2017-Jun-24 18:27N 33°43' W 118°15'0 0.3
2017-Jun-24 18:00N 33°43' W 118°15'1 2.7
2017-Jun-24 17:30N 33°44' W 118°16'0 0.0
2017-Jun-24 17:00N 33°44' W 118°16'0 0.0
2017-Jun-24 16:30N 33°44' W 118°16'0 0.0
2017-Jun-24 16:00N 33°44' W 118°16'0 0.0
2017-Jun-24 15:29N 33°44' W 118°16'4 7.7
2017-Jun-24 15:00N 33°44' W 118°11'1 2.4
2017-Jun-24 14:30N 33°45' W 118°11'1 0.8
2017-Jun-24 13:00N 33°45' W 118°12'1 2.7
2017-Jun-24 12:30N 33°45' W 118°14'0 0.0
2017-Jun-24 12:00N 33°45' W 118°14'3 5.0
2017-Jun-24 11:30N 33°44' W 118°16'2 3.6
2017-Jun-24 11:00N 33°45' W 118°17'1 2.0
2017-Jun-24 10:30N 33°44' W 118°17'2 4.5
2017-Jun-24 10:00N 33°43' W 118°15'1 2.5
2017-Jun-24 09:27N 33°44' W 118°16'0 0.0
2017-Jun-24 09:00N 33°44' W 118°16'0 0.0
2017-Jun-24 08:30N 33°44' W 118°16'0 0.0
2017-Jun-24 08:00N 33°44' W 118°16'0 0.0
2017-Jun-24 07:30N 33°44' W 118°16'0 0.0
2017-Jun-24 07:00N 33°44' W 118°16'0 0.0
2017-Jun-24 06:30N 33°44' W 118°16'0 0.0
2017-Jun-24 06:00N 33°44' W 118°16'0 0.0
2017-Jun-24 05:30N 33°44' W 118°16'1 1.5
2017-Jun-24 05:00N 33°44' W 118°17'2 3.3
2017-Jun-24 04:30N 33°46' W 118°16'0 0.1
2017-Jun-24 03:51N 33°46' W 118°15'2 5.5
2017-Jun-24 03:27N 33°43' W 118°16'1 1.3
2017-Jun-24 03:00N 33°44' W 118°16'0 0.0
2017-Jun-24 02:30N 33°44' W 118°16'1 2.0
2017-Jun-24 01:57N 33°45' W 118°17'1 1.4
2017-Jun-24 01:26N 33°45' W 118°17'0 0.1
2017-Jun-24 01:00N 33°45' W 118°17'2 3.1
2017-Jun-24 00:19N 33°43' W 118°16'1 2.1
2017-Jun-24 00:00N 33°44' W 118°16'0 0.0
2017-Jun-23 23:30N 33°44' W 118°16'0 0.0
2017-Jun-23 23:00N 33°44' W 118°16'3 4.9
2017-Jun-23 22:29N 33°44' W 118°13'1 1.1
2017-Jun-23 21:56N 33°45' W 118°12'3 4.6
2017-Jun-23 21:18N 33°44' W 118°16'0 0.2
2017-Jun-23 21:00N 33°44' W 118°16'2 2.7
2017-Jun-23 20:26N 33°43' W 118°14'2 2.9
2017-Jun-23 19:43N 33°44' W 118°12'2 9.3
2017-Jun-23 19:30N 33°43' W 118°14'2 3.1
2017-Jun-23 19:00N 33°44' W 118°16'0 0.0
2017-Jun-23 18:27N 33°44' W 118°16'0 0.0
2017-Jun-23 18:00N 33°44' W 118°16'0 0.0
2017-Jun-23 17:30N 33°44' W 118°16'0 0.0
2017-Jun-23 17:00N 33°44' W 118°16'0 0.1
2017-Jun-23 16:27N 33°44' W 118°16'2 5.2
2017-Jun-23 16:00N 33°45' W 118°13'1 2.8
2017-Jun-23 15:30N 33°46' W 118°13'3 6.4
2017-Jun-23 14:59N 33°43' W 118°15'3 4.9
2017-Jun-23 14:28N 33°45' W 118°16'3 2.6
2017-Jun-23 13:28N 33°46' W 118°13'1 1.0
2017-Jun-23 12:56N 33°46' W 118°13'2 5.8
2017-Jun-23 12:30N 33°44' W 118°11'0 0.4
2017-Jun-23 11:58N 33°44' W 118°12'4 6.1
2017-Jun-23 11:19N 33°45' W 118°16'0 0.3
2017-Jun-23 10:56N 33°45' W 118°16'0 0.9
2017-Jun-23 10:30N 33°45' W 118°16'0 0.1
2017-Jun-23 10:00N 33°45' W 118°16'1 0.5
2017-Jun-23 08:39N 33°46' W 118°16'0 0.3
2017-Jun-23 08:25N 33°46' W 118°16'1 1.2
2017-Jun-23 07:59N 33°45' W 118°16'2 4.8
2017-Jun-23 07:28N 33°43' W 118°15'2 3.0
2017-Jun-23 06:40N 33°44' W 118°13'1 4.3
2017-Jun-23 06:29N 33°43' W 118°13'2 3.1
2017-Jun-23 05:52N 33°44' W 118°16'0 0.0
2017-Jun-23 05:29N 33°44' W 118°16'0 0.0
2017-Jun-23 05:00N 33°44' W 118°16'0 0.0
2017-Jun-23 04:30N 33°44' W 118°16'0 0.0
2017-Jun-23 03:56N 33°44' W 118°16'0 0.0
2017-Jun-23 03:30N 33°44' W 118°16'2 3.1
2017-Jun-23 03:00N 33°43' W 118°14'2 3.8
2017-Jun-23 02:30N 33°45' W 118°14'1 1.2
2017-Jun-23 02:00N 33°45' W 118°15'1 1.1
2017-Jun-23 01:30N 33°45' W 118°14'1 2.4
2017-Jun-23 01:00N 33°45' W 118°12'1 1.2
2017-Jun-23 00:30N 33°44' W 118°12'1 2.8
2017-Jun-23 00:00N 33°44' W 118°11'1 2.7
2017-Jun-22 23:29N 33°44' W 118°12'1 1.3
2017-Jun-22 22:59N 33°45' W 118°12'1 2.2
2017-Jun-22 22:30N 33°44' W 118°13'2 4.8
2017-Jun-22 22:00N 33°44' W 118°16'0 0.0
2017-Jun-22 21:30N 33°44' W 118°16'0 0.0
2017-Jun-22 21:00N 33°44' W 118°16'0 0.0
2017-Jun-22 20:30N 33°44' W 118°16'0 0.0
2017-Jun-22 20:00N 33°44' W 118°16'0 0.0
2017-Jun-22 19:30N 33°44' W 118°16'0 0.0
2017-Jun-22 19:00N 33°44' W 118°16'0 0.0
2017-Jun-22 18:28N 33°44' W 118°16'0 0.0
2017-Jun-22 18:00N 33°44' W 118°16'0 0.0
2017-Jun-22 17:30N 33°44' W 118°16'0 0.0
2017-Jun-22 17:00N 33°44' W 118°16'1 1.3
2017-Jun-22 16:30N 33°44' W 118°16'0 0.0
2017-Jun-22 16:00N 33°44' W 118°16'2 2.7
2017-Jun-22 15:21N 33°45' W 118°16'0 0.5
2017-Jun-22 14:49N 33°46' W 118°15'1 4.8
2017-Jun-22 14:30N 33°44' W 118°17'2 1.5
2017-Jun-22 13:28N 33°46' W 118°15'1 2.0
2017-Jun-22 13:00N 33°45' W 118°16'2 3.0
2017-Jun-22 12:16N 33°43' W 118°15'1 2.4
2017-Jun-22 12:00N 33°43' W 118°15'1 2.7
2017-Jun-22 11:30N 33°44' W 118°16'1 2.1
2017-Jun-22 11:00N 33°45' W 118°16'1 2.6
2017-Jun-22 10:30N 33°46' W 118°16'0 0.3
2017-Jun-22 09:59N 33°46' W 118°16'0 0.0
2017-Jun-22 09:30N 33°46' W 118°16'0 0.0
2017-Jun-22 09:00N 33°46' W 118°16'0 0.0
2017-Jun-22 08:30N 33°46' W 118°16'0 0.0
2017-Jun-22 08:01N 33°46' W 118°16'2 4.0
2017-Jun-22 07:30N 33°44' W 118°16'2 4.5
2017-Jun-22 07:00N 33°43' W 118°14'3 5.2
2017-Jun-22 06:29N 33°46' W 118°13'1 2.3
2017-Jun-22 05:58N 33°45' W 118°13'2 5.0
2017-Jun-22 05:30N 33°44' W 118°16'0 0.0
2017-Jun-22 05:00N 33°44' W 118°16'0 0.0
2017-Jun-22 04:30N 33°44' W 118°16'0 0.0
2017-Jun-22 04:00N 33°44' W 118°16'0 0.0
2017-Jun-22 03:30N 33°44' W 118°16'0 0.0
2017-Jun-22 03:00N 33°44' W 118°16'1 3.0
2017-Jun-22 02:30N 33°43' W 118°14'1 1.4
2017-Jun-22 02:00N 33°44' W 118°14'2 3.4
2017-Jun-22 01:29N 33°45' W 118°12'0 0.0
2017-Jun-22 00:59N 33°45' W 118°12'0 0.0
2017-Jun-22 00:30N 33°45' W 118°12'1 1.3
2017-Jun-22 00:01N 33°45' W 118°12'2 3.5
2017-Jun-21 23:30N 33°45' W 118°14'0 0.2
2017-Jun-21 23:00N 33°45' W 118°14'1 3.0
2017-Jun-21 22:31N 33°44' W 118°12'1 2.6
2017-Jun-21 22:00N 33°43' W 118°11'2 4.6
2017-Jun-21 21:29N 33°43' W 118°14'2 3.3
2017-Jun-21 21:00N 33°44' W 118°16'0 0.0
2017-Jun-21 20:30N 33°44' W 118°16'0 0.0
2017-Jun-21 20:00N 33°44' W 118°16'0 0.0
2017-Jun-21 19:30N 33°44' W 118°16'0 0.5
2017-Jun-21 19:00N 33°44' W 118°15'0 0.9
2017-Jun-21 18:30N 33°44' W 118°16'1 2.3
2017-Jun-21 18:00N 33°43' W 118°15'1 2.8
2017-Jun-21 17:30N 33°44' W 118°16'0 0.0
2017-Jun-21 16:58N 33°44' W 118°16'0 0.0
2017-Jun-21 16:25N 33°44' W 118°16'0 0.4
2017-Jun-21 16:00N 33°44' W 118°16'3 4.2
2017-Jun-21 15:19N 33°45' W 118°12'2 6.9
2017-Jun-21 15:00N 33°43' W 118°14'2 3.1
2017-Jun-21 14:30N 33°44' W 118°16'2 1.6
2017-Jun-21 13:29N 33°45' W 118°16'0 0.4
2017-Jun-21 13:00N 33°45' W 118°16'2 3.7
2017-Jun-21 12:30N 33°44' W 118°16'2 3.1
2017-Jun-21 12:00N 33°43' W 118°15'3 5.0
2017-Jun-21 11:26N 33°45' W 118°13'0 0.9
2017-Jun-21 10:56N 33°46' W 118°13'0 1.0
2017-Jun-21 10:30N 33°45' W 118°13'0 0.0
2017-Jun-21 09:58N 33°45' W 118°13'0 0.0
2017-Jun-21 09:30N 33°45' W 118°13'1 1.2
2017-Jun-21 09:00N 33°46' W 118°13'2 4.9
2017-Jun-21 08:30N 33°45' W 118°16'1 1.3
2017-Jun-21 07:59N 33°45' W 118°16'3 5.3
2017-Jun-21 07:30N 33°42' W 118°15'0 0.7
2017-Jun-21 07:00N 33°43' W 118°15'1 2.6
2017-Jun-21 06:30N 33°44' W 118°16'0 0.0
2017-Jun-21 06:00N 33°44' W 118°16'0 0.0
2017-Jun-21 05:30N 33°44' W 118°16'0 0.0
2017-Jun-21 05:00N 33°44' W 118°16'0 0.0
2017-Jun-21 04:30N 33°44' W 118°16'0 0.0
2017-Jun-21 04:00N 33°44' W 118°16'0 0.0
2017-Jun-21 03:30N 33°44' W 118°16'0 0.0
2017-Jun-21 03:00N 33°44' W 118°16'0 0.0
2017-Jun-21 02:30N 33°44' W 118°16'0 0.0
2017-Jun-21 01:59N 33°44' W 118°16'0 0.0
2017-Jun-21 01:30N 33°44' W 118°16'0 0.0
2017-Jun-21 00:55N 33°44' W 118°16'0 0.0
2017-Jun-21 00:30N 33°44' W 118°16'0 0.0
2017-Jun-21 00:00N 33°44' W 118°16'0 0.0
2017-Jun-20 23:29N 33°44' W 118°16'0 1.0
2017-Jun-20 23:00N 33°43' W 118°16'3 5.4
2017-Jun-20 22:30N 33°43' W 118°13'2 4.2
2017-Jun-20 22:00N 33°44' W 118°10'5 9.3
2017-Jun-20 21:31N 33°43' W 118°16'1 1.7
2017-Jun-20 21:01N 33°44' W 118°15'1 1.5
2017-Jun-20 20:30N 33°44' W 118°16'1 2.3
2017-Jun-20 19:59N 33°43' W 118°15'1 2.9
2017-Jun-20 19:29N 33°44' W 118°16'0 0.0
2017-Jun-20 19:00N 33°44' W 118°16'0 0.3
2017-Jun-20 18:30N 33°44' W 118°16'0 0.0
2017-Jun-20 18:00N 33°44' W 118°16'0 0.0
2017-Jun-20 17:30N 33°44' W 118°16'0 0.0
2017-Jun-20 17:00N 33°44' W 118°16'4 7.0
2017-Jun-20 16:30N 33°44' W 118°11'1 2.2
2017-Jun-20 15:56N 33°44' W 118°10'0 0.1
2017-Jun-20 15:10N 33°44' W 118°10'0 0.4
2017-Jun-20 14:43N 33°44' W 118°10'2 3.2
2017-Jun-20 14:00N 33°44' W 118°13'3 5.3
2017-Jun-20 13:30N 33°44' W 118°16'1 2.3
2017-Jun-20 12:59N 33°45' W 118°16'0 0.6
2017-Jun-20 12:30N 33°45' W 118°16'1 1.1
2017-Jun-20 12:00N 33°44' W 118°17'2 4.0
2017-Jun-20 11:27N 33°43' W 118°15'1 3.0
2017-Jun-20 11:00N 33°44' W 118°16'0 0.0
2017-Jun-20 10:30N 33°44' W 118°16'0 0.0
2017-Jun-20 10:00N 33°44' W 118°16'0 0.0
2017-Jun-20 09:28N 33°44' W 118°16'0 0.0
2017-Jun-20 08:59N 33°44' W 118°16'0 0.0
2017-Jun-20 08:30N 33°44' W 118°16'0 0.0
2017-Jun-20 07:55N 33°44' W 118°16'0 0.0
2017-Jun-20 07:30N 33°44' W 118°16'0 0.0
2017-Jun-20 06:58N 33°44' W 118°16'1 1.4
2017-Jun-20 06:30N 33°43' W 118°16'3 4.3
2017-Jun-20 05:55N 33°46' W 118°16'2 4.5
2017-Jun-20 05:30N 33°44' W 118°16'0 0.1
2017-Jun-20 05:00N 33°44' W 118°16'0 0.0
2017-Jun-20 04:30N 33°44' W 118°16'0 0.0
2017-Jun-20 04:00N 33°44' W 118°16'0 0.0
2017-Jun-20 03:30N 33°44' W 118°16'0 0.0
2017-Jun-20 03:00N 33°44' W 118°16'0 0.0
2017-Jun-20 02:30N 33°44' W 118°16'0 0.0
2017-Jun-20 02:00N 33°44' W 118°16'0 0.0
2017-Jun-20 01:30N 33°44' W 118°16'0 0.0
2017-Jun-20 01:00N 33°44' W 118°16'0 0.5
2017-Jun-20 00:31N 33°44' W 118°16'0 0.5
2017-Jun-20 00:00N 33°44' W 118°16'2 4.9
2017-Jun-19 23:30N 33°43' W 118°13'3 6.8
2017-Jun-19 23:01N 33°44' W 118°09'3 6.6
2017-Jun-19 22:30N 33°43' W 118°13'2 4.5
2017-Jun-19 22:00N 33°44' W 118°16'0 0.9
2017-Jun-19 21:30N 33°43' W 118°16'1 1.9
2017-Jun-19 21:00N 33°43' W 118°15'1 2.6
2017-Jun-19 20:30N 33°44' W 118°16'0 0.0
2017-Jun-19 20:00N 33°44' W 118°16'0 0.0
2017-Jun-19 19:30N 33°44' W 118°16'0 0.0
2017-Jun-19 19:00N 33°44' W 118°16'0 0.0
2017-Jun-19 18:28N 33°44' W 118°16'0 0.0
2017-Jun-19 17:59N 33°44' W 118°16'0 0.0
2017-Jun-19 17:30N 33°44' W 118°16'0 0.0
2017-Jun-19 17:00N 33°44' W 118°16'0 0.0
2017-Jun-19 16:30N 33°44' W 118°16'0 0.0
2017-Jun-19 16:00N 33°44' W 118°16'0 0.0
2017-Jun-19 15:30N 33°44' W 118°16'0 0.0
2017-Jun-19 15:00N 33°44' W 118°16'0 0.7
2017-Jun-19 14:30N 33°44' W 118°16'2 2.2
2017-Jun-19 13:29N 33°46' W 118°15'2 3.4
2017-Jun-19 12:58N 33°44' W 118°17'2 4.1
2017-Jun-19 12:30N 33°43' W 118°15'1 1.0
2017-Jun-19 12:00N 33°43' W 118°15'2 4.5
2017-Jun-19 11:30N 33°44' W 118°17'1 1.8
2017-Jun-19 10:58N 33°45' W 118°16'1 1.7
2017-Jun-19 10:30N 33°46' W 118°16'1 2.4
2017-Jun-19 10:00N 33°45' W 118°16'0 0.1
2017-Jun-19 09:30N 33°45' W 118°16'0 0.1
2017-Jun-19 09:01N 33°45' W 118°16'3 5.9
2017-Jun-19 08:30N 33°43' W 118°13'3 6.8
2017-Jun-19 08:01N 33°44' W 118°09'2 3.0
2017-Jun-19 07:29N 33°43' W 118°11'2 4.3
2017-Jun-19 07:00N 33°41' W 118°12'4 7.5
2017-Jun-19 06:28N 33°44' W 118°16'0 0.4
2017-Jun-19 05:54N 33°44' W 118°16'0 0.0
2017-Jun-19 05:28N 33°44' W 118°16'0 0.0
2017-Jun-19 04:58N 33°44' W 118°16'0 0.0
2017-Jun-19 04:30N 33°44' W 118°16'0 0.0
2017-Jun-19 03:59N 33°44' W 118°16'1 2.7
2017-Jun-19 03:30N 33°43' W 118°15'2 3.2
2017-Jun-19 02:59N 33°44' W 118°13'2 5.0
2017-Jun-19 02:30N 33°43' W 118°16'2 4.8
2017-Jun-19 02:00N 33°45' W 118°16'0 0.2
2017-Jun-19 01:28N 33°45' W 118°16'0 0.0
2017-Jun-19 00:59N 33°45' W 118°16'0 1.0
2017-Jun-19 00:30N 33°45' W 118°16'0 0.6
2017-Jun-19 00:00N 33°45' W 118°16'0 0.5
2017-Jun-18 23:30N 33°45' W 118°16'0 0.0
2017-Jun-18 23:00N 33°45' W 118°16'1 1.8
2017-Jun-18 22:31N 33°44' W 118°17'0 0.9
2017-Jun-18 22:00N 33°44' W 118°16'0 0.5
2017-Jun-18 21:30N 33°44' W 118°16'1 2.1
2017-Jun-18 21:00N 33°43' W 118°16'5 7.9
2017-Jun-18 20:25N 33°44' W 118°10'2 5.0
2017-Jun-18 19:59N 33°44' W 118°13'1 1.6
2017-Jun-18 19:30N 33°44' W 118°12'3 6.0
2017-Jun-18 19:01N 33°41' W 118°11'2 4.0
2017-Jun-18 18:30N 33°42' W 118°13'3 6.3
2017-Jun-18 18:00N 33°44' W 118°16'0 0.0
2017-Jun-18 17:30N 33°44' W 118°16'0 0.0
2017-Jun-18 17:00N 33°44' W 118°16'0 0.0
2017-Jun-18 16:30N 33°44' W 118°16'0 0.0
2017-Jun-18 16:00N 33°44' W 118°16'0 0.0
2017-Jun-18 15:30N 33°44' W 118°16'0 0.0
2017-Jun-18 14:59N 33°44' W 118°16'1 0.8
2017-Jun-18 14:00N 33°44' W 118°17'2 3.9
2017-Jun-18 13:30N 33°46' W 118°15'0 0.7
2017-Jun-18 13:00N 33°46' W 118°16'2 3.0
2017-Jun-18 12:30N 33°44' W 118°17'1 2.0
2017-Jun-18 12:00N 33°45' W 118°17'0 0.4
2017-Jun-18 11:29N 33°45' W 118°16'2 3.4
2017-Jun-18 11:00N 33°44' W 118°15'0 0.5
2017-Jun-18 10:30N 33°44' W 118°15'1 2.4
2017-Jun-18 10:00N 33°43' W 118°15'2 3.9
2017-Jun-18 09:30N 33°44' W 118°17'2 3.9
2017-Jun-18 09:00N 33°46' W 118°16'3 5.3
2017-Jun-18 08:30N 33°43' W 118°16'1 1.3
2017-Jun-18 08:00N 33°44' W 118°16'0 0.3
2017-Jun-18 07:30N 33°44' W 118°16'0 0.0
2017-Jun-18 07:00N 33°44' W 118°16'0 0.0
2017-Jun-18 06:29N 33°44' W 118°16'0 0.0
2017-Jun-18 06:00N 33°44' W 118°16'0 0.0
2017-Jun-18 05:30N 33°44' W 118°16'0 0.0
2017-Jun-18 04:56N 33°44' W 118°16'0 0.0
2017-Jun-18 04:30N 33°44' W 118°16'0 0.0
2017-Jun-18 04:00N 33°44' W 118°16'0 0.0
2017-Jun-18 03:30N 33°44' W 118°16'0 0.0
2017-Jun-18 03:00N 33°44' W 118°16'0 0.0
2017-Jun-18 02:30N 33°44' W 118°16'0 0.0
2017-Jun-18 02:00N 33°44' W 118°16'0 0.0
2017-Jun-18 01:28N 33°44' W 118°16'0 0.0
2017-Jun-18 01:00N 33°44' W 118°16'0 0.0
2017-Jun-18 00:30N 33°44' W 118°16'0 0.0
2017-Jun-18 00:00N 33°44' W 118°16'0 0.0
2017-Jun-17 23:30N 33°44' W 118°16'0 0.0
2017-Jun-17 23:00N 33°44' W 118°16'0 0.0
2017-Jun-17 22:30N 33°44' W 118°16'0 0.7
2017-Jun-17 22:01N 33°43' W 118°16'3 6.0
2017-Jun-17 21:30N 33°46' W 118°13'1 1.5
2017-Jun-17 21:00N 33°46' W 118°13'1 1.0
2017-Jun-17 20:30N 33°46' W 118°13'3 6.8
2017-Jun-17 20:00N 33°43' W 118°15'1 2.5
2017-Jun-17 19:30N 33°44' W 118°16'0 0.2
2017-Jun-17 19:00N 33°44' W 118°16'0 0.0
2017-Jun-17 18:30N 33°44' W 118°16'0 0.0
2017-Jun-17 18:00N 33°44' W 118°16'0 0.0
2017-Jun-17 17:30N 33°44' W 118°16'0 0.0
2017-Jun-17 17:00N 33°44' W 118°16'0 0.3
2017-Jun-17 16:30N 33°44' W 118°16'2 3.8
2017-Jun-17 16:00N 33°43' W 118°14'2 3.3
2017-Jun-17 15:28N 33°44' W 118°12'0 0.1
2017-Jun-17 15:00N 33°44' W 118°12'0 0.0
2017-Jun-17 14:30N 33°44' W 118°12'0 0.0
2017-Jun-17 13:27N 33°44' W 118°12'0 0.0
2017-Jun-17 13:00N 33°44' W 118°12'2 3.7
2017-Jun-17 12:30N 33°45' W 118°14'1 1.6
2017-Jun-17 12:00N 33°46' W 118°13'0 0.7
2017-Jun-17 11:30N 33°46' W 118°13'1 1.9
2017-Jun-17 11:01N 33°45' W 118°13'0 0.4
2017-Jun-17 10:30N 33°45' W 118°13'0 0.0
2017-Jun-17 10:00N 33°45' W 118°13'0 0.0
2017-Jun-17 09:29N 33°45' W 118°13'0 0.0
2017-Jun-17 09:00N 33°45' W 118°13'0 0.0
2017-Jun-17 08:30N 33°45' W 118°13'0 0.0
2017-Jun-17 08:00N 33°45' W 118°13'0 0.8
2017-Jun-17 07:30N 33°45' W 118°12'3 5.5
2017-Jun-17 07:00N 33°43' W 118°15'1 2.8
2017-Jun-17 06:30N 33°44' W 118°16'0 0.2
2017-Jun-17 05:57N 33°44' W 118°16'0 0.0
2017-Jun-17 05:27N 33°44' W 118°16'1 1.6
2017-Jun-17 05:00N 33°44' W 118°17'1 0.8
2017-Jun-17 03:29N 33°45' W 118°16'0 0.0
2017-Jun-17 02:32N 33°45' W 118°16'0 0.0
2017-Jun-17 02:24N 33°45' W 118°16'0 0.4
2017-Jun-17 02:00N 33°45' W 118°16'0 0.2
2017-Jun-17 01:13N 33°45' W 118°16'0 0.0
2017-Jun-17 00:54N 33°45' W 118°16'0 0.0
2017-Jun-17 00:22N 33°45' W 118°16'0 0.0
2017-Jun-17 00:00N 33°45' W 118°16'0 0.0
2017-Jun-16 23:30N 33°45' W 118°16'0 0.0
2017-Jun-16 23:00N 33°45' W 118°16'0 0.0
2017-Jun-16 22:30N 33°45' W 118°16'1 1.6
2017-Jun-16 22:00N 33°46' W 118°16'2 4.2
2017-Jun-16 21:30N 33°44' W 118°16'2 3.6
2017-Jun-16 21:00N 33°43' W 118°14'  
Track history (hours):
 
Tides and Currents Weather Stations Pressure Air Temp Water Temp Dewpoint Dewpoint Depression Visibility Wind Speed Wind Dir Waves Ship Positions

Tim Quigg

Owner: Harley Marine Services, Inc, Seattle, WA. More information available from US FCC via Universal Licensing System and Coast Guard Vessel Documentation Center.

Last reported at 2017-Jun-26 20:30 UTC. Time now 2017-Jun-26 20:50 UTC.
Position N 33°44' W 118°16'.

; draft 4.4 m.

Type: Tug. MMSI: 366926740.

Date/timePositionNaut miles runAvg speedWind from/ knotsBaromVisibWave heightAir tempDewpointWater temp
2017-Jun-26 20:30N 33°44' W 118°16'0 0.0
2017-Jun-26 20:00N 33°44' W 118°16'0 0.0
2017-Jun-26 19:30N 33°44' W 118°16'0 0.0
2017-Jun-26 19:00N 33°44' W 118°16'0 0.0
2017-Jun-26 18:30N 33°44' W 118°16'0 0.0
2017-Jun-26 18:00N 33°44' W 118°16'0 0.0
2017-Jun-26 17:30N 33°44' W 118°16'0 0.0
2017-Jun-26 17:00N 33°44' W 118°16'0 0.0
2017-Jun-26 16:30N 33°44' W 118°16'0 0.0
2017-Jun-26 16:00N 33°44' W 118°16'0 0.0
2017-Jun-26 15:30N 33°44' W 118°16'0 0.0
2017-Jun-26 15:00N 33°44' W 118°16'2 2.1
2017-Jun-26 14:00N 33°46' W 118°15'3 5.7
2017-Jun-26 13:30N 33°43' W 118°16'1 1.3
2017-Jun-26 13:00N 33°44' W 118°16'0 0.0
2017-Jun-26 12:30N 33°44' W 118°16'0 0.0
2017-Jun-26 12:00N 33°44' W 118°16'0 0.0
2017-Jun-26 11:30N 33°44' W 118°16'0 1.0
2017-Jun-26 11:00N 33°44' W 118°16'0 0.0
2017-Jun-26 10:30N 33°44' W 118°16'1 1.4
2017-Jun-26 10:00N 33°43' W 118°16'1 2.7
2017-Jun-26 09:30N 33°43' W 118°15'0 0.7
2017-Jun-26 09:00N 33°43' W 118°15'0 0.1
2017-Jun-26 08:30N 33°43' W 118°15'2 4.3
2017-Jun-26 08:00N 33°45' W 118°13'2 3.1
2017-Jun-26 07:30N 33°46' W 118°13'0 0.3
2017-Jun-26 07:00N 33°46' W 118°13'4 6.8
2017-Jun-26 06:26N 33°43' W 118°15'1 3.1
2017-Jun-26 06:00N 33°44' W 118°16'0 0.0
2017-Jun-26 05:30N 33°44' W 118°16'0 0.0
2017-Jun-26 05:00N 33°44' W 118°16'0 0.0
2017-Jun-26 04:30N 33°44' W 118°16'1 2.3
2017-Jun-26 04:00N 33°45' W 118°16'0 0.8
2017-Jun-26 03:31N 33°45' W 118°16'1 2.9
2017-Jun-26 03:00N 33°44' W 118°16'2 3.3
2017-Jun-26 02:30N 33°43' W 118°14'3 6.5
2017-Jun-26 02:00N 33°46' W 118°13'0 0.1
2017-Jun-26 01:30N 33°46' W 118°13'3 5.0
2017-Jun-26 01:00N 33°45' W 118°16'1 1.2
2017-Jun-26 00:29N 33°46' W 118°15'0 0.1
2017-Jun-26 00:00N 33°46' W 118°15'1 2.6
2017-Jun-25 23:30N 33°45' W 118°16'3 4.9
2017-Jun-25 22:58N 33°43' W 118°14'3 7.3
2017-Jun-25 22:30N 33°44' W 118°10'1 2.8
2017-Jun-25 21:59N 33°44' W 118°09'0 0.7
2017-Jun-25 21:30N 33°44' W 118°09'4 7.0
2017-Jun-25 21:00N 33°45' W 118°13'0 0.0
2017-Jun-25 20:22N 33°45' W 118°13'0 0.0
2017-Jun-25 20:00N 33°45' W 118°13'0 0.7
2017-Jun-25 19:30N 33°45' W 118°13'1 1.4
2017-Jun-25 19:00N 33°46' W 118°13'2 5.0
2017-Jun-25 18:30N 33°44' W 118°14'2 3.6
2017-Jun-25 18:00N 33°44' W 118°16'0 0.2
2017-Jun-25 17:27N 33°44' W 118°16'0 0.0
2017-Jun-25 17:00N 33°44' W 118°16'0 0.0
2017-Jun-25 16:20N 33°44' W 118°16'0 0.0
2017-Jun-25 16:00N 33°44' W 118°16'2 3.3
2017-Jun-25 15:30N 33°45' W 118°16'2 2.8
2017-Jun-25 14:57N 33°44' W 118°17'1 1.5
2017-Jun-25 14:00N 33°44' W 118°15'1 1.5
2017-Jun-25 13:26N 33°44' W 118°16'2 4.0
2017-Jun-25 12:49N 33°44' W 118°13'1 4.5
2017-Jun-25 12:30N 33°45' W 118°14'0 0.4
2017-Jun-25 11:56N 33°45' W 118°14'1 2.2
2017-Jun-25 11:30N 33°45' W 118°13'0 0.0
2017-Jun-25 11:00N 33°45' W 118°13'1 2.7
2017-Jun-25 10:30N 33°44' W 118°13'2 3.6
2017-Jun-25 10:00N 33°43' W 118°15'1 2.0
2017-Jun-25 09:23N 33°44' W 118°16'0 0.2
2017-Jun-25 08:50N 33°44' W 118°16'0 0.0
2017-Jun-25 08:30N 33°44' W 118°16'0 0.0
2017-Jun-25 07:50N 33°44' W 118°16'0 0.0
2017-Jun-25 06:53N 33°44' W 118°16'0 0.0
2017-Jun-25 06:29N 33°44' W 118°16'0 0.0
2017-Jun-25 05:50N 33°44' W 118°16'1 2.4
2017-Jun-25 05:28N 33°43' W 118°16'1 2.2
2017-Jun-25 05:00N 33°44' W 118°15'0 0.5
2017-Jun-25 04:30N 33°44' W 118°16'0 0.0
2017-Jun-25 03:59N 33°44' W 118°16'0 0.0
2017-Jun-25 03:30N 33°44' W 118°16'1 1.2
2017-Jun-25 03:00N 33°44' W 118°16'2 3.8
2017-Jun-25 02:30N 33°46' W 118°16'0 0.3
2017-Jun-25 01:55N 33°46' W 118°15'0 0.2
2017-Jun-25 01:30N 33°46' W 118°16'2 4.1
2017-Jun-25 01:00N 33°44' W 118°16'1 1.2
2017-Jun-25 00:30N 33°43' W 118°16'3 5.0
2017-Jun-25 00:00N 33°46' W 118°15'0 0.5
2017-Jun-24 23:13N 33°46' W 118°16'0 0.9
2017-Jun-24 23:00N 33°46' W 118°15'0 0.6
2017-Jun-24 22:30N 33°45' W 118°16'1 2.8
2017-Jun-24 22:00N 33°44' W 118°17'2 4.1
2017-Jun-24 21:29N 33°43' W 118°15'2 4.5
2017-Jun-24 20:59N 33°44' W 118°17'1 2.3
2017-Jun-24 20:22N 33°45' W 118°16'2 4.4
2017-Jun-24 20:00N 33°44' W 118°16'1 2.1
2017-Jun-24 19:30N 33°44' W 118°15'0 0.2
2017-Jun-24 19:00N 33°44' W 118°15'1 2.4
2017-Jun-24 18:27N 33°43' W 118°15'0 0.3
2017-Jun-24 18:00N 33°43' W 118°15'1 2.7
2017-Jun-24 17:30N 33°44' W 118°16'0 0.0
2017-Jun-24 17:00N 33°44' W 118°16'0 0.0
2017-Jun-24 16:30N 33°44' W 118°16'0 0.0
2017-Jun-24 16:00N 33°44' W 118°16'0 0.0
2017-Jun-24 15:29N 33°44' W 118°16'4 7.7
2017-Jun-24 15:00N 33°44' W 118°11'1 2.4
2017-Jun-24 14:30N 33°45' W 118°11'1 0.8
2017-Jun-24 13:00N 33°45' W 118°12'1 2.7
2017-Jun-24 12:30N 33°45' W 118°14'0 0.0
2017-Jun-24 12:00N 33°45' W 118°14'3 5.0
2017-Jun-24 11:30N 33°44' W 118°16'2 3.6
2017-Jun-24 11:00N 33°45' W 118°17'1 2.0
2017-Jun-24 10:30N 33°44' W 118°17'2 4.5
2017-Jun-24 10:00N 33°43' W 118°15'1 2.5
2017-Jun-24 09:27N 33°44' W 118°16'0 0.0
2017-Jun-24 09:00N 33°44' W 118°16'0 0.0
2017-Jun-24 08:30N 33°44' W 118°16'0 0.0
2017-Jun-24 08:00N 33°44' W 118°16'0 0.0
2017-Jun-24 07:30N 33°44' W 118°16'0 0.0
2017-Jun-24 07:00N 33°44' W 118°16'0 0.0
2017-Jun-24 06:30N 33°44' W 118°16'0 0.0
2017-Jun-24 06:00N 33°44' W 118°16'0 0.0
2017-Jun-24 05:30N 33°44' W 118°16'1 1.5
2017-Jun-24 05:00N 33°44' W 118°17'2 3.3
2017-Jun-24 04:30N 33°46' W 118°16'0 0.1
2017-Jun-24 03:51N 33°46' W 118°15'2 5.5
2017-Jun-24 03:27N 33°43' W 118°16'1 1.3
2017-Jun-24 03:00N 33°44' W 118°16'0 0.0
2017-Jun-24 02:30N 33°44' W 118°16'1 2.0
2017-Jun-24 01:57N 33°45' W 118°17'1 1.4
2017-Jun-24 01:26N 33°45' W 118°17'0 0.1
2017-Jun-24 01:00N 33°45' W 118°17'2 3.1
2017-Jun-24 00:19N 33°43' W 118°16'1 2.1
2017-Jun-24 00:00N 33°44' W 118°16'0 0.0
2017-Jun-23 23:30N 33°44' W 118°16'0 0.0
2017-Jun-23 23:00N 33°44' W 118°16'3 4.9
2017-Jun-23 22:29N 33°44' W 118°13'1 1.1
2017-Jun-23 21:56N 33°45' W 118°12'3 4.6
2017-Jun-23 21:18N 33°44' W 118°16'0 0.2
2017-Jun-23 21:00N 33°44' W 118°16'2 2.7
2017-Jun-23 20:26N 33°43' W 118°14'2 2.9
2017-Jun-23 19:43N 33°44' W 118°12'2 9.3
2017-Jun-23 19:30N 33°43' W 118°14'2 3.1
2017-Jun-23 19:00N 33°44' W 118°16'0 0.0
2017-Jun-23 18:27N 33°44' W 118°16'0 0.0
2017-Jun-23 18:00N 33°44' W 118°16'0 0.0
2017-Jun-23 17:30N 33°44' W 118°16'0 0.0
2017-Jun-23 17:00N 33°44' W 118°16'0 0.1
2017-Jun-23 16:27N 33°44' W 118°16'2 5.2
2017-Jun-23 16:00N 33°45' W 118°13'1 2.8
2017-Jun-23 15:30N 33°46' W 118°13'3 6.4
2017-Jun-23 14:59N 33°43' W 118°15'3 4.9
2017-Jun-23 14:28N 33°45' W 118°16'3 2.6
2017-Jun-23 13:28N 33°46' W 118°13'1 1.0
2017-Jun-23 12:56N 33°46' W 118°13'2 5.8
2017-Jun-23 12:30N 33°44' W 118°11'0 0.4
2017-Jun-23 11:58N 33°44' W 118°12'4 6.1
2017-Jun-23 11:19N 33°45' W 118°16'0 0.3
2017-Jun-23 10:56N 33°45' W 118°16'0 0.9
2017-Jun-23 10:30N 33°45' W 118°16'0 0.1
2017-Jun-23 10:00N 33°45' W 118°16'1 0.5
2017-Jun-23 08:39N 33°46' W 118°16'0 0.3
2017-Jun-23 08:25N 33°46' W 118°16'1 1.2
2017-Jun-23 07:59N 33°45' W 118°16'2 4.8
2017-Jun-23 07:28N 33°43' W 118°15'2 3.0
2017-Jun-23 06:40N 33°44' W 118°13'1 4.3
2017-Jun-23 06:29N 33°43' W 118°13'2 3.1
2017-Jun-23 05:52N 33°44' W 118°16'0 0.0
2017-Jun-23 05:29N 33°44' W 118°16'0 0.0
2017-Jun-23 05:00N 33°44' W 118°16'0 0.0
2017-Jun-23 04:30N 33°44' W 118°16'0 0.0
2017-Jun-23 03:56N 33°44' W 118°16'0 0.0
2017-Jun-23 03:30N 33°44' W 118°16'2 3.1
2017-Jun-23 03:00N 33°43' W 118°14'2 3.8
2017-Jun-23 02:30N 33°45' W 118°14'1 1.2
2017-Jun-23 02:00N 33°45' W 118°15'1 1.1
2017-Jun-23 01:30N 33°45' W 118°14'1 2.4
2017-Jun-23 01:00N 33°45' W 118°12'1 1.2
2017-Jun-23 00:30N 33°44' W 118°12'1 2.8
2017-Jun-23 00:00N 33°44' W 118°11'1 2.7
2017-Jun-22 23:29N 33°44' W 118°12'1 1.3
2017-Jun-22 22:59N 33°45' W 118°12'1 2.2
2017-Jun-22 22:30N 33°44' W 118°13'2 4.8
2017-Jun-22 22:00N 33°44' W 118°16'0 0.0
2017-Jun-22 21:30N 33°44' W 118°16'0 0.0
2017-Jun-22 21:00N 33°44' W 118°16'0 0.0
2017-Jun-22 20:30N 33°44' W 118°16'0 0.0
2017-Jun-22 20:00N 33°44' W 118°16'0 0.0
2017-Jun-22 19:30N 33°44' W 118°16'0 0.0
2017-Jun-22 19:00N 33°44' W 118°16'0 0.0
2017-Jun-22 18:28N 33°44' W 118°16'0 0.0
2017-Jun-22 18:00N 33°44' W 118°16'0 0.0
2017-Jun-22 17:30N 33°44' W 118°16'0 0.0
2017-Jun-22 17:00N 33°44' W 118°16'1 1.3
2017-Jun-22 16:30N 33°44' W 118°16'0 0.0
2017-Jun-22 16:00N 33°44' W 118°16'2 2.7
2017-Jun-22 15:21N 33°45' W 118°16'0 0.5
2017-Jun-22 14:49N 33°46' W 118°15'1 4.8
2017-Jun-22 14:30N 33°44' W 118°17'2 1.5
2017-Jun-22 13:28N 33°46' W 118°15'1 2.0
2017-Jun-22 13:00N 33°45' W 118°16'2 3.0
2017-Jun-22 12:16N 33°43' W 118°15'1 2.4
2017-Jun-22 12:00N 33°43' W 118°15'1 2.7
2017-Jun-22 11:30N 33°44' W 118°16'1 2.1
2017-Jun-22 11:00N 33°45' W 118°16'1 2.6
2017-Jun-22 10:30N 33°46' W 118°16'0 0.3
2017-Jun-22 09:59N 33°46' W 118°16'0 0.0
2017-Jun-22 09:30N 33°46' W 118°16'0 0.0
2017-Jun-22 09:00N 33°46' W 118°16'0 0.0
2017-Jun-22 08:30N 33°46' W 118°16'0 0.0
2017-Jun-22 08:01N 33°46' W 118°16'2 4.0
2017-Jun-22 07:30N 33°44' W 118°16'2 4.5
2017-Jun-22 07:00N 33°43' W 118°14'3 5.2
2017-Jun-22 06:29N 33°46' W 118°13'1 2.3
2017-Jun-22 05:58N 33°45' W 118°13'2 5.0
2017-Jun-22 05:30N 33°44' W 118°16'0 0.0
2017-Jun-22 05:00N 33°44' W 118°16'0 0.0
2017-Jun-22 04:30N 33°44' W 118°16'0 0.0
2017-Jun-22 04:00N 33°44' W 118°16'0 0.0
2017-Jun-22 03:30N 33°44' W 118°16'0 0.0
2017-Jun-22 03:00N 33°44' W 118°16'1 3.0
2017-Jun-22 02:30N 33°43' W 118°14'1 1.4
2017-Jun-22 02:00N 33°44' W 118°14'2 3.4
2017-Jun-22 01:29N 33°45' W 118°12'0 0.0
2017-Jun-22 00:59N 33°45' W 118°12'0 0.0
2017-Jun-22 00:30N 33°45' W 118°12'1 1.3
2017-Jun-22 00:01N 33°45' W 118°12'2 3.5
2017-Jun-21 23:30N 33°45' W 118°14'0 0.2
2017-Jun-21 23:00N 33°45' W 118°14'1 3.0
2017-Jun-21 22:31N 33°44' W 118°12'1 2.6
2017-Jun-21 22:00N 33°43' W 118°11'2 4.6
2017-Jun-21 21:29N 33°43' W 118°14'2 3.3
2017-Jun-21 21:00N 33°44' W 118°16'0 0.0
2017-Jun-21 20:30N 33°44' W 118°16'0 0.0
2017-Jun-21 20:00N 33°44' W 118°16'0 0.0
2017-Jun-21 19:30N 33°44' W 118°16'0 0.5
2017-Jun-21 19:00N 33°44' W 118°15'0 0.9
2017-Jun-21 18:30N 33°44' W 118°16'1 2.3
2017-Jun-21 18:00N 33°43' W 118°15'1 2.8
2017-Jun-21 17:30N 33°44' W 118°16'0 0.0
2017-Jun-21 16:58N 33°44' W 118°16'0 0.0
2017-Jun-21 16:25N 33°44' W 118°16'0 0.4
2017-Jun-21 16:00N 33°44' W 118°16'3 4.2
2017-Jun-21 15:19N 33°45' W 118°12'2 6.9
2017-Jun-21 15:00N 33°43' W 118°14'2 3.1
2017-Jun-21 14:30N 33°44' W 118°16'2 1.6
2017-Jun-21 13:29N 33°45' W 118°16'0 0.4
2017-Jun-21 13:00N 33°45' W 118°16'2 3.7
2017-Jun-21 12:30N 33°44' W 118°16'2 3.1
2017-Jun-21 12:00N 33°43' W 118°15'3 5.0
2017-Jun-21 11:26N 33°45' W 118°13'0 0.9
2017-Jun-21 10:56N 33°46' W 118°13'0 1.0
2017-Jun-21 10:30N 33°45' W 118°13'0 0.0
2017-Jun-21 09:58N 33°45' W 118°13'0 0.0
2017-Jun-21 09:30N 33°45' W 118°13'1 1.2
2017-Jun-21 09:00N 33°46' W 118°13'2 4.9
2017-Jun-21 08:30N 33°45' W 118°16'1 1.3
2017-Jun-21 07:59N 33°45' W 118°16'3 5.3
2017-Jun-21 07:30N 33°42' W 118°15'0 0.7
2017-Jun-21 07:00N 33°43' W 118°15'1 2.6
2017-Jun-21 06:30N 33°44' W 118°16'0 0.0
2017-Jun-21 06:00N 33°44' W 118°16'0 0.0
2017-Jun-21 05:30N 33°44' W 118°16'0 0.0
2017-Jun-21 05:00N 33°44' W 118°16'0 0.0
2017-Jun-21 04:30N 33°44' W 118°16'0 0.0
2017-Jun-21 04:00N 33°44' W 118°16'0 0.0
2017-Jun-21 03:30N 33°44' W 118°16'0 0.0
2017-Jun-21 03:00N 33°44' W 118°16'0 0.0
2017-Jun-21 02:30N 33°44' W 118°16'0 0.0
2017-Jun-21 01:59N 33°44' W 118°16'0 0.0
2017-Jun-21 01:30N 33°44' W 118°16'0 0.0
2017-Jun-21 00:55N 33°44' W 118°16'0 0.0
2017-Jun-21 00:30N 33°44' W 118°16'0 0.0
2017-Jun-21 00:00N 33°44' W 118°16'0 0.0
2017-Jun-20 23:29N 33°44' W 118°16'0 1.0
2017-Jun-20 23:00N 33°43' W 118°16'3 5.4
2017-Jun-20 22:30N 33°43' W 118°13'2 4.2
2017-Jun-20 22:00N 33°44' W 118°10'5 9.3
2017-Jun-20 21:31N 33°43' W 118°16'1 1.7
2017-Jun-20 21:01N 33°44' W 118°15'1 1.5
2017-Jun-20 20:30N 33°44' W 118°16'1 2.3
2017-Jun-20 19:59N 33°43' W 118°15'1 2.9
2017-Jun-20 19:29N 33°44' W 118°16'0 0.0
2017-Jun-20 19:00N 33°44' W 118°16'0 0.3
2017-Jun-20 18:30N 33°44' W 118°16'0 0.0
2017-Jun-20 18:00N 33°44' W 118°16'0 0.0
2017-Jun-20 17:30N 33°44' W 118°16'0 0.0
2017-Jun-20 17:00N 33°44' W 118°16'4 7.0
2017-Jun-20 16:30N 33°44' W 118°11'1 2.2
2017-Jun-20 15:56N 33°44' W 118°10'0 0.1
2017-Jun-20 15:10N 33°44' W 118°10'0 0.4
2017-Jun-20 14:43N 33°44' W 118°10'2 3.2
2017-Jun-20 14:00N 33°44' W 118°13'3 5.3
2017-Jun-20 13:30N 33°44' W 118°16'1 2.3
2017-Jun-20 12:59N 33°45' W 118°16'0 0.6
2017-Jun-20 12:30N 33°45' W 118°16'1 1.1
2017-Jun-20 12:00N 33°44' W 118°17'2 4.0
2017-Jun-20 11:27N 33°43' W 118°15'1 3.0
2017-Jun-20 11:00N 33°44' W 118°16'0 0.0
2017-Jun-20 10:30N 33°44' W 118°16'0 0.0
2017-Jun-20 10:00N 33°44' W 118°16'0 0.0
2017-Jun-20 09:28N 33°44' W 118°16'0 0.0
2017-Jun-20 08:59N 33°44' W 118°16'0 0.0
2017-Jun-20 08:30N 33°44' W 118°16'0 0.0
2017-Jun-20 07:55N 33°44' W 118°16'0 0.0
2017-Jun-20 07:30N 33°44' W 118°16'0 0.0
2017-Jun-20 06:58N 33°44' W 118°16'1 1.4
2017-Jun-20 06:30N 33°43' W 118°16'3 4.3
2017-Jun-20 05:55N 33°46' W 118°16'2 4.5
2017-Jun-20 05:30N 33°44' W 118°16'0 0.1
2017-Jun-20 05:00N 33°44' W 118°16'0 0.0
2017-Jun-20 04:30N 33°44' W 118°16'0 0.0
2017-Jun-20 04:00N 33°44' W 118°16'0 0.0
2017-Jun-20 03:30N 33°44' W 118°16'0 0.0
2017-Jun-20 03:00N 33°44' W 118°16'0 0.0
2017-Jun-20 02:30N 33°44' W 118°16'0 0.0
2017-Jun-20 02:00N 33°44' W 118°16'0 0.0
2017-Jun-20 01:30N 33°44' W 118°16'0 0.0
2017-Jun-20 01:00N 33°44' W 118°16'0 0.5
2017-Jun-20 00:31N 33°44' W 118°16'0 0.5
2017-Jun-20 00:00N 33°44' W 118°16'2 4.9
2017-Jun-19 23:30N 33°43' W 118°13'3 6.8
2017-Jun-19 23:01N 33°44' W 118°09'3 6.6
2017-Jun-19 22:30N 33°43' W 118°13'2 4.5
2017-Jun-19 22:00N 33°44' W 118°16'0 0.9
2017-Jun-19 21:30N 33°43' W 118°16'1 1.9
2017-Jun-19 21:00N 33°43' W 118°15'1 2.6
2017-Jun-19 20:30N 33°44' W 118°16'0 0.0
2017-Jun-19 20:00N 33°44' W 118°16'0 0.0
2017-Jun-19 19:30N 33°44' W 118°16'0 0.0
2017-Jun-19 19:00N 33°44' W 118°16'0 0.0
2017-Jun-19 18:28N 33°44' W 118°16'0 0.0
2017-Jun-19 17:59N 33°44' W 118°16'0 0.0
2017-Jun-19 17:30N 33°44' W 118°16'0 0.0
2017-Jun-19 17:00N 33°44' W 118°16'0 0.0
2017-Jun-19 16:30N 33°44' W 118°16'0 0.0
2017-Jun-19 16:00N 33°44' W 118°16'0 0.0
2017-Jun-19 15:30N 33°44' W 118°16'0 0.0
2017-Jun-19 15:00N 33°44' W 118°16'0 0.7
2017-Jun-19 14:30N 33°44' W 118°16'2 2.2
2017-Jun-19 13:29N 33°46' W 118°15'2 3.4
2017-Jun-19 12:58N 33°44' W 118°17'2 4.1
2017-Jun-19 12:30N 33°43' W 118°15'1 1.0
2017-Jun-19 12:00N 33°43' W 118°15'2 4.5
2017-Jun-19 11:30N 33°44' W 118°17'1 1.8
2017-Jun-19 10:58N 33°45' W 118°16'1 1.7
2017-Jun-19 10:30N 33°46' W 118°16'1 2.4
2017-Jun-19 10:00N 33°45' W 118°16'0 0.1
2017-Jun-19 09:30N 33°45' W 118°16'0 0.1
2017-Jun-19 09:01N 33°45' W 118°16'3 5.9
2017-Jun-19 08:30N 33°43' W 118°13'3 6.8
2017-Jun-19 08:01N 33°44' W 118°09'2 3.0
2017-Jun-19 07:29N 33°43' W 118°11'2 4.3
2017-Jun-19 07:00N 33°41' W 118°12'4 7.5
2017-Jun-19 06:28N 33°44' W 118°16'0 0.4
2017-Jun-19 05:54N 33°44' W 118°16'0 0.0
2017-Jun-19 05:28N 33°44' W 118°16'0 0.0
2017-Jun-19 04:58N 33°44' W 118°16'0 0.0
2017-Jun-19 04:30N 33°44' W 118°16'0 0.0
2017-Jun-19 03:59N 33°44' W 118°16'1 2.7
2017-Jun-19 03:30N 33°43' W 118°15'2 3.2
2017-Jun-19 02:59N 33°44' W 118°13'2 5.0
2017-Jun-19 02:30N 33°43' W 118°16'2 4.8
2017-Jun-19 02:00N 33°45' W 118°16'0 0.2
2017-Jun-19 01:28N 33°45' W 118°16'0 0.0
2017-Jun-19 00:59N 33°45' W 118°16'0 1.0
2017-Jun-19 00:30N 33°45' W 118°16'0 0.6
2017-Jun-19 00:00N 33°45' W 118°16'0 0.5
2017-Jun-18 23:30N 33°45' W 118°16'0 0.0
2017-Jun-18 23:00N 33°45' W 118°16'1 1.8
2017-Jun-18 22:31N 33°44' W 118°17'0 0.9
2017-Jun-18 22:00N 33°44' W 118°16'0 0.5
2017-Jun-18 21:30N 33°44' W 118°16'1 2.1
2017-Jun-18 21:00N 33°43' W 118°16'5 7.9
2017-Jun-18 20:25N 33°44' W 118°10'2 5.0
2017-Jun-18 19:59N 33°44' W 118°13'1 1.6
2017-Jun-18 19:30N 33°44' W 118°12'3 6.0
2017-Jun-18 19:01N 33°41' W 118°11'2 4.0
2017-Jun-18 18:30N 33°42' W 118°13'3 6.3
2017-Jun-18 18:00N 33°44' W 118°16'0 0.0
2017-Jun-18 17:30N 33°44' W 118°16'0 0.0
2017-Jun-18 17:00N 33°44' W 118°16'0 0.0
2017-Jun-18 16:30N 33°44' W 118°16'0 0.0
2017-Jun-18 16:00N 33°44' W 118°16'0 0.0
2017-Jun-18 15:30N 33°44' W 118°16'0 0.0
2017-Jun-18 14:59N 33°44' W 118°16'1 0.8
2017-Jun-18 14:00N 33°44' W 118°17'2 3.9
2017-Jun-18 13:30N 33°46' W 118°15'0 0.7
2017-Jun-18 13:00N 33°46' W 118°16'2 3.0
2017-Jun-18 12:30N 33°44' W 118°17'1 2.0
2017-Jun-18 12:00N 33°45' W 118°17'0 0.4
2017-Jun-18 11:29N 33°45' W 118°16'2 3.4
2017-Jun-18 11:00N 33°44' W 118°15'0 0.5
2017-Jun-18 10:30N 33°44' W 118°15'1 2.4
2017-Jun-18 10:00N 33°43' W 118°15'2 3.9
2017-Jun-18 09:30N 33°44' W 118°17'2 3.9
2017-Jun-18 09:00N 33°46' W 118°16'3 5.3
2017-Jun-18 08:30N 33°43' W 118°16'1 1.3
2017-Jun-18 08:00N 33°44' W 118°16'0 0.3
2017-Jun-18 07:30N 33°44' W 118°16'0 0.0
2017-Jun-18 07:00N 33°44' W 118°16'0 0.0
2017-Jun-18 06:29N 33°44' W 118°16'0 0.0
2017-Jun-18 06:00N 33°44' W 118°16'0 0.0
2017-Jun-18 05:30N 33°44' W 118°16'0 0.0
2017-Jun-18 04:56N 33°44' W 118°16'0 0.0
2017-Jun-18 04:30N 33°44' W 118°16'0 0.0
2017-Jun-18 04:00N 33°44' W 118°16'0 0.0
2017-Jun-18 03:30N 33°44' W 118°16'0 0.0
2017-Jun-18 03:00N 33°44' W 118°16'0 0.0
2017-Jun-18 02:30N 33°44' W 118°16'0 0.0
2017-Jun-18 02:00N 33°44' W 118°16'0 0.0
2017-Jun-18 01:28N 33°44' W 118°16'0 0.0
2017-Jun-18 01:00N 33°44' W 118°16'0 0.0
2017-Jun-18 00:30N 33°44' W 118°16'0 0.0
2017-Jun-18 00:00N 33°44' W 118°16'0 0.0
2017-Jun-17 23:30N 33°44' W 118°16'0 0.0
2017-Jun-17 23:00N 33°44' W 118°16'0 0.0
2017-Jun-17 22:30N 33°44' W 118°16'0 0.7
2017-Jun-17 22:01N 33°43' W 118°16'3 6.0
2017-Jun-17 21:30N 33°46' W 118°13'1 1.5
2017-Jun-17 21:00N 33°46' W 118°13'1 1.0
2017-Jun-17 20:30N 33°46' W 118°13'3 6.8
2017-Jun-17 20:00N 33°43' W 118°15'1 2.5
2017-Jun-17 19:30N 33°44' W 118°16'0 0.2
2017-Jun-17 19:00N 33°44' W 118°16'0 0.0
2017-Jun-17 18:30N 33°44' W 118°16'0 0.0
2017-Jun-17 18:00N 33°44' W 118°16'0 0.0
2017-Jun-17 17:30N 33°44' W 118°16'0 0.0
2017-Jun-17 17:00N 33°44' W 118°16'0 0.3
2017-Jun-17 16:30N 33°44' W 118°16'2 3.8
2017-Jun-17 16:00N 33°43' W 118°14'2 3.3
2017-Jun-17 15:28N 33°44' W 118°12'0 0.1
2017-Jun-17 15:00N 33°44' W 118°12'0 0.0
2017-Jun-17 14:30N 33°44' W 118°12'0 0.0
2017-Jun-17 13:27N 33°44' W 118°12'0 0.0
2017-Jun-17 13:00N 33°44' W 118°12'2 3.7
2017-Jun-17 12:30N 33°45' W 118°14'1 1.6
2017-Jun-17 12:00N 33°46' W 118°13'0 0.7
2017-Jun-17 11:30N 33°46' W 118°13'1 1.9
2017-Jun-17 11:01N 33°45' W 118°13'0 0.4
2017-Jun-17 10:30N 33°45' W 118°13'0 0.0
2017-Jun-17 10:00N 33°45' W 118°13'0 0.0
2017-Jun-17 09:29N 33°45' W 118°13'0 0.0
2017-Jun-17 09:00N 33°45' W 118°13'0 0.0
2017-Jun-17 08:30N 33°45' W 118°13'0 0.0
2017-Jun-17 08:00N 33°45' W 118°13'0 0.8
2017-Jun-17 07:30N 33°45' W 118°12'3 5.5
2017-Jun-17 07:00N 33°43' W 118°15'1 2.8
2017-Jun-17 06:30N 33°44' W 118°16'0 0.2
2017-Jun-17 05:57N 33°44' W 118°16'0 0.0
2017-Jun-17 05:27N 33°44' W 118°16'1 1.6
2017-Jun-17 05:00N 33°44' W 118°17'1 0.8
2017-Jun-17 03:29N 33°45' W 118°16'0 0.0
2017-Jun-17 02:32N 33°45' W 118°16'0 0.0
2017-Jun-17 02:24N 33°45' W 118°16'0 0.4
2017-Jun-17 02:00N 33°45' W 118°16'0 0.2
2017-Jun-17 01:13N 33°45' W 118°16'0 0.0
2017-Jun-17 00:54N 33°45' W 118°16'0 0.0
2017-Jun-17 00:22N 33°45' W 118°16'0 0.0
2017-Jun-17 00:00N 33°45' W 118°16'0 0.0
2017-Jun-16 23:30N 33°45' W 118°16'0 0.0
2017-Jun-16 23:00N 33°45' W 118°16'0 0.0
2017-Jun-16 22:30N 33°45' W 118°16'1 1.6
2017-Jun-16 22:00N 33°46' W 118°16'2 4.2
2017-Jun-16 21:30N 33°44' W 118°16'2 3.6
2017-Jun-16 21:00N 33°43' W 118°14'  

Dump ship's entire track history